Time;durP1;ratioP1;P1;durP2;ratioP2;P2;SDS_P1;SDS_P2;PMS_P1;PMS_P2;Temp;Humidity;BMP_temperature;BMP_pressure;BME280_temperature;BME280_humidity;BME280_pressure;Samples;Min_cycle;Max_cycle;Signal;HPM_P1;HPM_P2
2021/11/19 00:01:11;;;;;;;31.93;16.50;;;;;;;8.98;100.00;102718.72;2082226;28;20021;-68
2021/11/19 00:02:12;;;;;;;27.50;15.88;;;;;;;8.99;100.00;102715.22;2090721;28;20052;-68
2021/11/19 00:03:13;;;;;;;30.95;15.40;;;;;;;8.98;100.00;102716.13;2091062;28;20059;-69
2021/11/19 00:04:14;;;;;;;32.95;18.92;;;;;;;8.98;100.00;102717.84;2090987;28;20115;-68
2021/11/19 00:05:15;;;;;;;30.75;16.73;;;;;;;8.99;100.00;102720.44;2091065;28;20440;-69
2021/11/19 00:06:16;;;;;;;33.80;17.13;;;;;;;8.98;100.00;102713.50;2090986;28;20521;-68
2021/11/19 00:07:16;;;;;;;;;;;;;;;8.99;100.00;102715.22;2091581;28;20302;-68
2021/11/19 00:08:21;;;;;;;30.98;16.35;;;;;;;8.99;100.00;102709.16;2090937;28;19944;-67
2021/11/19 00:09:22;;;;;;;29.40;15.45;;;;;;;8.98;100.00;102713.50;2090924;28;20044;-67
2021/11/19 00:10:23;;;;;;;;;;;;;;;8.99;100.00;102717.84;2091516;28;20395;-67
2021/11/19 00:11:27;;;;;;;27.92;15.38;;;;;;;8.98;100.00;102713.50;2091021;28;19913;-67
2021/11/19 00:12:28;;;;;;;34.38;16.38;;;;;;;8.98;100.00;102708.31;2091083;28;20075;-68
2021/11/19 00:13:28;;;;;;;28.67;15.13;;;;;;;8.96;100.00;102710.03;2091034;28;20091;-66
2021/11/19 00:14:29;;;;;;;38.67;16.70;;;;;;;8.96;100.00;102703.97;2090956;28;20287;-67
2021/11/19 00:15:30;;;;;;;32.33;16.38;;;;;;;8.96;100.00;102703.97;2090997;28;20474;-68
2021/11/19 00:16:32;;;;;;;32.70;16.20;;;;;;;8.96;100.00;102710.03;2091030;28;20025;-68
2021/11/19 00:17:34;;;;;;;27.58;15.77;;;;;;;8.96;100.00;102703.97;2090959;28;20024;-69
2021/11/19 00:18:35;;;;;;;31.08;16.35;;;;;;;8.95;100.00;102708.31;2091014;28;20486;-69
2021/11/19 00:19:40;;;;;;;31.80;16.92;;;;;;;8.95;100.00;102705.72;2090948;28;20045;-68
2021/11/19 00:20:41;;;;;;;28.00;15.27;;;;;;;8.95;100.00;102708.31;2091022;28;20067;-69
2021/11/19 00:21:43;;;;;;;32.47;16.83;;;;;;;8.96;100.00;102699.63;2089951;28;20017;-68
2021/11/19 00:22:44;;;;;;;36.42;17.83;;;;;;;8.96;100.00;102697.00;2090957;28;20032;-67
2021/11/19 00:23:45;;;;;;;;;;;;;;;8.97;100.00;102690.09;2091373;28;20021;-67
2021/11/19 00:24:47;;;;;;;27.27;15.13;;;;;;;8.96;100.00;102699.63;2090983;28;19912;-69
2021/11/19 00:25:47;;;;;;;28.55;16.13;;;;;;;8.95;100.00;102703.09;2090838;28;20057;-66
2021/11/19 00:26:49;;;;;;;28.48;15.75;;;;;;;8.96;100.00;102702.22;2090865;28;20033;-68
2021/11/19 00:27:50;;;;;;;;;;;;;;;8.96;100.00;102703.97;2091274;28;20025;-66
2021/11/19 00:28:50;;;;;;;27.25;14.98;;;;;;;8.95;100.00;102705.72;2090882;28;19958;-68
2021/11/19 00:29:51;;;;;;;22.48;14.15;;;;;;;8.95;100.00;102703.09;2090892;28;20044;-69
2021/11/19 00:30:52;;;;;;;25.25;15.05;;;;;;;8.96;100.00;102699.63;2090867;28;20067;-66
2021/11/19 00:31:53;;;;;;;27.05;15.63;;;;;;;8.94;100.00;102698.78;2090964;28;20021;-67
2021/11/19 00:32:54;;;;;;;30.00;16.00;;;;;;;8.95;100.00;102700.50;2090807;28;20460;-68
2021/11/19 00:33:56;;;;;;;29.27;15.52;;;;;;;8.95;100.00;102697.91;2090873;28;20025;-68
2021/11/19 00:34:56;;;;;;;;;;;;;;;8.96;100.00;102702.22;2091254;28;20047;-67
2021/11/19 00:35:57;;;;;;;23.60;13.25;;;;;;;8.96;100.00;102698.78;2090949;28;19913;-68
2021/11/19 00:36:58;;;;;;;26.00;15.10;;;;;;;8.95;100.00;102700.50;2090259;28;20051;-69
2021/11/19 00:38:00;;;;;;;25.80;15.65;;;;;;;8.96;100.00;102701.38;2090229;28;20029;-67
2021/11/19 00:39:05;;;;;;;30.08;15.52;;;;;;;8.95;100.00;102697.91;2090826;28;20051;-68
2021/11/19 00:40:10;;;;;;;30.70;16.63;;;;;;;8.97;100.00;102695.28;2090812;28;20520;-67
2021/11/19 00:41:11;;;;;;;25.77;16.80;;;;;;;8.97;100.00;102701.34;2090664;28;20108;-68
2021/11/19 00:42:12;;;;;;;28.02;15.95;;;;;;;8.96;100.00;102704.81;2090715;28;20037;-68
2021/11/19 00:43:13;;;;;;;28.42;17.85;;;;;;;8.97;100.00;102703.09;2090708;28;20523;-68
2021/11/19 00:44:15;;;;;;;28.15;17.23;;;;;;;8.97;100.00;102708.31;2090740;28;20024;-68
2021/11/19 00:45:15;;;;;;;33.10;17.67;;;;;;;8.97;100.00;102711.75;2090730;28;20028;-70
2021/11/19 00:46:16;;;;;;;27.95;17.45;;;;;;;8.98;100.00;102705.69;2090704;28;20237;-66
2021/11/19 00:47:17;;;;;;;23.17;15.93;;;;;;;8.98;100.00;102708.31;2090756;28;20033;-69
2021/11/19 00:48:20;;;;;;;27.70;17.60;;;;;;;8.99;100.00;102703.94;2090672;28;20025;-67
2021/11/19 00:49:24;;;;;;;25.23;16.92;;;;;;;8.99;100.00;102702.22;2090678;28;20457;-67
2021/11/19 00:50:32;;;;;;;32.00;16.73;;;;;;;8.99;100.00;102699.59;2090678;28;20031;-66
2021/11/19 00:51:36;;;;;;;22.98;15.82;;;;;;;8.99;100.00;102691.78;2090692;28;20021;-68
2021/11/19 00:52:36;;;;;;;30.17;16.92;;;;;;;9.00;100.00;102695.28;2090728;28;20120;-67
2021/11/19 00:53:40;;;;;;;28.35;17.73;;;;;;;8.98;100.00;102700.50;2090621;28;20398;-68
2021/11/19 00:54:41;;;;;;;25.08;16.17;;;;;;;9.00;100.00;102690.06;2090644;28;20029;-68
2021/11/19 00:55:42;;;;;;;25.98;15.93;;;;;;;8.99;100.00;102691.78;2090628;28;20032;-69
2021/11/19 00:56:46;;;;;;;28.63;16.17;;;;;;;9.00;100.00;102688.31;2090640;28;20043;-67
2021/11/19 00:57:47;;;;;;;27.80;18.02;;;;;;;9.00;100.00;102685.69;2090662;28;20098;-68
2021/11/19 00:58:49;;;;;;;28.15;17.40;;;;;;;9.01;100.00;102692.63;2090619;28;20053;-66
2021/11/19 00:59:50;;;;;;;25.65;16.50;;;;;;;9.03;100.00;102690.03;2090639;28;20031;-68
2021/11/19 01:01:00;;;;;;;27.92;16.75;;;;;;;9.01;100.00;102687.44;2090612;28;20020;-67
2021/11/19 01:02:08;;;;;;;26.45;18.30;;;;;;;9.02;100.00;102678.75;2090659;28;20035;-68
2021/11/19 01:03:09;;;;;;;26.70;17.60;;;;;;;9.02;100.00;102683.09;2090578;28;20025;-67
2021/11/19 01:04:11;;;;;;;28.02;17.05;;;;;;;9.01;100.00;102674.41;2090561;28;20155;-68
2021/11/19 01:05:12;;;;;;;29.13;16.70;;;;;;;9.01;100.00;102683.97;2090682;28;20032;-67
2021/11/19 01:06:13;;;;;;;27.67;17.80;;;;;;;9.01;100.00;102684.81;2090489;28;20028;-67
2021/11/19 01:07:16;;;;;;;29.88;16.83;;;;;;;9.00;100.00;102685.69;2090629;28;20559;-67
2021/11/19 01:08:17;;;;;;;28.15;17.98;;;;;;;9.01;100.00;102679.63;2090520;28;20040;-68
2021/11/19 01:09:22;;;;;;;26.02;17.50;;;;;;;9.01;100.00;102687.44;2090554;28;20029;-68
2021/11/19 01:10:29;;;;;;;23.77;16.52;;;;;;;9.01;100.00;102684.81;2089879;28;20115;-68
2021/11/19 01:11:30;;;;;;;26.17;16.50;;;;;;;9.01;100.00;102692.63;2089962;28;20040;-68
2021/11/19 01:12:32;;;;;;;27.00;18.90;;;;;;;9.02;100.00;102686.56;2090525;28;20029;-67
2021/11/19 01:13:36;;;;;;;29.05;17.02;;;;;;;9.02;100.00;102689.19;2090524;28;20021;-67
2021/11/19 01:14:51;;;;;;;27.52;17.58;;;;;;;9.04;100.00;102690.91;2090497;28;20039;-67
2021/11/19 01:15:55;;;;;;;32.25;19.08;;;;;;;9.02;100.00;102689.19;2090495;28;20020;-67
2021/11/19 01:17:03;;;;;;;26.55;19.20;;;;;;;9.02;100.00;102689.19;2090564;28;20054;-67
2021/11/19 01:18:19;;;;;;;26.30;16.35;;;;;;;9.03;100.00;102695.22;2090405;28;20385;-67
2021/11/19 01:19:30;;;;;;;24.75;16.70;;;;;;;9.03;100.00;102700.44;2089868;28;20037;-67
2021/11/19 01:20:45;;;;;;;23.17;16.13;;;;;;;9.03;100.00;102695.22;2089981;28;20421;-68
2021/11/19 01:21:51;;;;;;;26.00;16.85;;;;;;;9.04;100.00;102701.31;2090381;28;20029;-67
2021/11/19 01:22:54;;;;;;;30.10;18.13;;;;;;;9.03;100.00;102705.66;2089749;28;20074;-67
2021/11/19 01:23:55;;;;;;;28.75;18.50;;;;;;;9.05;100.00;102708.25;2089830;28;20020;-67
2021/11/19 01:24:57;;;;;;;29.52;17.83;;;;;;;9.05;100.00;102708.25;2090383;28;20031;-67
2021/11/19 01:26:02;;;;;;;30.92;17.63;;;;;;;9.06;100.00;102704.78;2090313;28;20045;-66
2021/11/19 01:27:04;;;;;;;26.98;17.33;;;;;;;9.05;100.00;102698.72;2090379;28;20103;-67
2021/11/19 01:28:05;;;;;;;28.27;17.80;;;;;;;9.06;100.00;102712.59;2090455;28;20025;-66
2021/11/19 01:29:09;;;;;;;28.80;18.35;;;;;;;9.07;100.00;102701.31;2090372;28;20029;-66
2021/11/19 01:30:14;;;;;;;26.75;18.55;;;;;;;9.07;100.00;102703.91;2089676;28;20417;-67
2021/11/19 01:31:20;;;;;;;26.65;19.80;;;;;;;9.06;100.00;102704.78;2089895;28;20060;-69
2021/11/19 01:32:24;;;;;;;29.45;18.30;;;;;;;9.08;100.00;102713.44;2090389;28;20017;-67
2021/11/19 01:33:26;;;;;;;30.02;18.30;;;;;;;9.08;100.00;102713.44;2090065;28;20028;-66
2021/11/19 01:34:27;;;;;;;29.15;18.48;;;;;;;9.10;100.00;102716.91;2090300;28;20032;-67
2021/11/19 01:35:28;;;;;;;;;;;;;;;9.11;100.00;102705.63;2090832;28;20029;-67
2021/11/19 01:36:29;;;;;;;25.58;16.63;;;;;;;9.09;100.00;102709.97;2090423;28;19912;-67
2021/11/19 01:37:30;;;;;;;;;;;;;;;9.10;100.00;102711.72;2090735;28;20501;-65
2021/11/19 01:38:31;;;;;;;25.08;15.20;;;;;;;9.08;100.00;102709.13;2089673;28;19909;-67
2021/11/19 01:39:34;;;;;;;24.73;15.85;;;;;;;9.09;100.00;102715.16;2089750;28;20107;-67
2021/11/19 01:40:39;;;;;;;30.05;17.15;;;;;;;9.09;100.00;102704.75;2090325;28;20029;-67
2021/11/19 01:41:47;;;;;;;27.75;16.67;;;;;;;9.09;100.00;102715.16;2090216;28;20032;-66
2021/11/19 01:42:52;;;;;;;23.38;16.75;;;;;;;9.09;100.00;102700.41;2090270;28;20482;-68
2021/11/19 01:43:55;;;;;;;28.08;17.88;;;;;;;9.09;100.00;102715.16;2090243;28;20112;-67
2021/11/19 01:45:05;;;;;;;26.38;17.98;;;;;;;9.08;100.00;102709.13;2090429;28;20021;-66
2021/11/19 01:46:09;;;;;;;28.48;17.70;;;;;;;9.09;100.00;102717.78;2090300;28;20447;-68
2021/11/19 01:47:12;;;;;;;22.85;17.13;;;;;;;9.08;100.00;102714.31;2089500;28;20059;-67
2021/11/19 01:48:15;;;;;;;31.52;17.05;;;;;;;9.09;100.00;102717.78;2089653;28;20021;-67
2021/11/19 01:49:16;;;;;;;26.60;17.13;;;;;;;9.09;100.00;102721.25;2090261;28;20025;-68
2021/11/19 01:50:22;;;;;;;28.13;18.02;;;;;;;9.09;100.00;102718.66;2090246;28;20041;-67
2021/11/19 01:51:48;;;;;;;27.90;18.17;;;;;;;9.11;100.00;102723.84;2090264;28;20108;-67
2021/11/19 01:53:03;;;;;;;29.70;17.77;;;;;;;9.12;100.00;102715.16;2090386;28;20035;-66
2021/11/19 01:54:24;;;;;;;29.48;18.52;;;;;;;9.13;100.00;102709.94;2089560;28;20028;-67
2021/11/19 01:55:28;;;;;;;28.05;17.35;;;;;;;9.13;100.00;102714.28;2089544;28;20029;-67
2021/11/19 01:56:34;;;;;;;29.65;18.02;;;;;;;9.14;100.00;102713.41;2089608;28;20099;-67
2021/11/19 01:57:39;;;;;;;25.75;16.27;;;;;;;9.14;100.00;102710.81;2090155;28;20036;-68
2021/11/19 01:58:47;;;;;;;25.90;18.88;;;;;;;9.16;100.00;102705.59;2090277;28;20021;-67
2021/11/19 01:59:59;;;;;;;32.75;17.23;;;;;;;9.14;100.00;102708.22;2090254;28;20021;-68
2021/11/19 02:01:07;;;;;;;24.55;17.15;;;;;;;9.16;100.00;102700.38;2090107;28;20032;-66
2021/11/19 02:02:12;;;;;;;26.48;17.02;;;;;;;9.16;100.00;102703.84;2090099;28;20483;-69
2021/11/19 02:03:16;;;;;;;28.08;18.45;;;;;;;9.16;100.00;102701.22;2090304;28;20029;-67
2021/11/19 02:04:21;;;;;;;26.00;18.70;;;;;;;9.15;100.00;102699.50;2089686;28;20035;-68
2021/11/19 02:05:27;;;;;;;28.92;19.67;;;;;;;9.17;100.00;102696.91;2090074;28;20053;-67
2021/11/19 02:06:43;;;;;;;25.27;18.00;;;;;;;9.17;100.00;102692.53;2089815;28;20108;-66
2021/11/19 02:07:48;;;;;;;30.63;18.75;;;;;;;9.17;100.00;102695.13;2090048;28;20021;-67
2021/11/19 02:08:50;;;;;;;27.42;18.58;;;;;;;9.17;100.00;102692.53;2090300;28;20429;-66
2021/11/19 02:10:00;;;;;;;28.30;18.88;;;;;;;9.18;100.00;102691.69;2089700;28;20094;-67
2021/11/19 02:11:10;;;;;;;30.17;19.35;;;;;;;9.19;100.00;102684.72;2089587;28;20115;-68
2021/11/19 02:12:31;;;;;;;32.58;20.60;;;;;;;9.18;100.00;102681.25;2089598;28;20060;-67
2021/11/19 02:13:50;;;;;;;30.25;17.80;;;;;;;9.20;100.00;102686.47;2089737;28;20033;-67
2021/11/19 02:15:00;;;;;;;31.58;18.83;;;;;;;9.19;100.00;102682.97;2090089;28;20052;-67
2021/11/19 02:16:07;;;;;;;29.05;17.13;;;;;;;9.20;100.00;102683.84;2090187;28;20448;-68
2021/11/19 02:17:09;;;;;;;29.95;18.45;;;;;;;9.20;100.00;102686.47;2090117;28;20029;-69
2021/11/19 02:18:20;;;;;;;29.33;20.00;;;;;;;9.20;100.00;102689.91;2090097;28;20513;-68
2021/11/19 02:19:26;;;;;;;30.10;19.88;;;;;;;9.20;100.00;102689.06;2090136;28;20021;-68
2021/11/19 02:20:38;;;;;;;29.95;18.63;;;;;;;9.20;100.00;102687.31;2090118;28;20029;-67
2021/11/19 02:21:49;;;;;;;29.35;19.45;;;;;;;9.19;100.00;102689.94;2089348;28;20043;-68
2021/11/19 02:22:58;;;;;;;35.10;19.35;;;;;;;9.19;100.00;102680.38;2089655;28;20029;-68
2021/11/19 02:24:17;;;;;;;27.73;19.52;;;;;;;9.19;100.00;102680.38;2090073;28;20509;-68
2021/11/19 02:25:26;;;;;;;29.75;19.13;;;;;;;9.19;100.00;102682.97;2089995;28;20028;-68
2021/11/19 02:26:36;;;;;;;33.08;18.67;;;;;;;9.21;100.00;102680.38;2089488;28;20484;-67
2021/11/19 02:27:45;;;;;;;25.80;18.35;;;;;;;9.20;100.00;102676.88;2089659;28;20032;-67
2021/11/19 02:28:49;;;;;;;33.85;21.00;;;;;;;9.21;100.00;102677.78;2090018;28;20079;-69
2021/11/19 02:29:58;;;;;;;26.25;18.30;;;;;;;9.20;100.00;102676.88;2089944;28;20029;-66
2021/11/19 02:31:07;;;;;;;29.52;19.83;;;;;;;9.20;100.00;102676.88;2089413;28;20028;-69
2021/11/19 02:32:14;;;;;;;31.13;19.45;;;;;;;9.21;100.00;102683.81;2082166;28;20029;-67
2021/11/19 02:33:16;;;;;;;34.78;20.85;;;;;;;9.21;100.00;102678.63;2089521;28;20032;-68
2021/11/19 02:34:18;;;;;;;26.10;18.73;;;;;;;9.22;100.00;102682.97;2089929;28;20096;-67
2021/11/19 02:35:28;;;;;;;37.30;20.05;;;;;;;9.22;100.00;102684.69;2090034;28;20394;-68
2021/11/19 02:36:38;;;;;;;31.08;20.75;;;;;;;9.21;100.00;102683.81;2089295;28;20029;-68
2021/11/19 02:37:44;;;;;;;31.35;20.60;;;;;;;9.22;100.00;102682.09;2089577;28;20112;-68
2021/11/19 02:38:48;;;;;;;28.63;19.42;;;;;;;9.22;100.00;102675.16;2090032;28;20061;-69
2021/11/19 02:39:52;;;;;;;28.83;19.38;;;;;;;9.22;100.00;102682.97;2089974;28;20017;-68
2021/11/19 02:40:53;;;;;;;32.47;21.25;;;;;;;9.23;100.00;102681.22;2090045;28;20017;-69
2021/11/19 02:42:00;;;;;;;31.87;20.60;;;;;;;9.23;100.00;102676.88;2089410;28;20021;-67
2021/11/19 02:43:08;;;;;;;34.25;19.85;;;;;;;9.24;100.00;102680.34;2089472;28;20366;-67
2021/11/19 02:44:10;;;;;;;26.33;18.25;;;;;;;9.23;100.00;102676.88;2090026;28;20084;-67
2021/11/19 02:45:36;;;;;;;34.05;21.35;;;;;;;9.25;100.00;102675.13;2090955;28;20021;-68
2021/11/19 02:46:41;;;;;;;33.05;19.70;;;;;;;9.24;100.00;102678.59;2091547;28;20025;-67
2021/11/19 02:47:42;;;;;;;29.73;20.48;;;;;;;9.25;100.00;102679.47;2091695;28;20024;-67
2021/11/19 02:48:43;;;;;;;;;;;;;;;9.27;100.00;102673.38;2091989;28;20029;-68
2021/11/19 02:49:44;;;;;;;29.15;18.88;;;;;;;9.26;100.00;102679.47;2091624;28;19959;-68
2021/11/19 02:50:47;;;;;;;30.88;19.60;;;;;;;9.28;100.00;102680.31;2091713;28;20017;-68
2021/11/19 02:51:48;;;;;;;27.83;19.13;;;;;;;9.28;100.00;102680.31;2091586;28;20478;-68
2021/11/19 02:52:50;;;;;;;36.53;21.00;;;;;;;9.28;100.00;102669.88;2091561;28;20033;-67
2021/11/19 02:53:52;;;;;;;33.25;21.50;;;;;;;9.28;100.00;102674.25;2091564;28;20025;-67
2021/11/19 02:54:53;;;;;;;29.77;19.92;;;;;;;9.28;100.00;102680.31;2091623;28;20017;-67
2021/11/19 02:55:56;;;;;;;28.35;21.20;;;;;;;9.28;100.00;102687.28;2090838;28;20367;-67
2021/11/19 02:56:58;;;;;;;31.92;19.98;;;;;;;9.27;100.00;102686.41;2083002;28;20025;-68
2021/11/19 02:58:00;;;;;;;31.75;20.92;;;;;;;9.27;100.00;102683.78;2091007;28;20025;-67
2021/11/19 02:59:02;;;;;;;32.15;20.73;;;;;;;9.28;100.00;102684.66;2091506;28;20017;-68
2021/11/19 03:00:13;;;;;;;33.42;20.15;;;;;;;9.30;100.00;102676.84;2090890;28;20029;-67
2021/11/19 03:01:14;;;;;;;30.05;19.45;;;;;;;9.30;100.00;102682.91;2091047;28;20029;-68
2021/11/19 03:02:20;;;;;;;33.73;21.43;;;;;;;9.30;100.00;102677.69;2091557;28;20443;-67
2021/11/19 03:03:20;;;;;;;30.83;20.25;;;;;;;9.31;100.00;102681.16;2091479;28;20697;-67
2021/11/19 03:04:26;;;;;;;28.67;20.97;;;;;;;9.32;100.00;102677.69;2091534;28;20029;-68
2021/11/19 03:05:28;;;;;;;32.85;21.67;;;;;;;9.31;100.00;102678.56;2091647;28;20524;-69
2021/11/19 03:06:30;;;;;;;27.52;20.60;;;;;;;9.31;100.00;102678.56;2091525;28;20523;-70
2021/11/19 03:07:31;;;;;;;30.88;21.10;;;;;;;9.30;100.00;102675.09;2091549;28;20044;-67
2021/11/19 03:08:33;;;;;;;29.88;19.40;;;;;;;9.32;100.00;102675.06;2091436;28;20040;-67
2021/11/19 03:09:38;;;;;;;34.20;21.55;;;;;;;9.32;100.00;102675.94;2090853;28;20028;-67
2021/11/19 03:10:43;;;;;;;33.78;21.45;;;;;;;9.33;100.00;102676.78;2090863;28;20151;-67
2021/11/19 03:11:44;;;;;;;33.40;21.30;;;;;;;9.33;100.00;102679.41;2091453;28;20021;-67
2021/11/19 03:12:44;;;;;;;27.92;18.83;;;;;;;9.32;100.00;102683.78;2091558;28;20017;-68
2021/11/19 03:13:45;;;;;;;36.80;21.92;;;;;;;9.33;100.00;102682.00;2091449;28;20359;-69
2021/11/19 03:14:48;;;;;;;30.23;19.50;;;;;;;9.33;100.00;102671.59;2091458;28;20029;-67
2021/11/19 03:15:50;;;;;;;31.92;20.23;;;;;;;9.33;100.00;102682.88;2091447;28;20025;-67
2021/11/19 03:16:52;;;;;;;24.75;17.08;;;;;;;9.35;100.00;102675.06;2090790;28;20025;-67
2021/11/19 03:17:54;;;;;;;31.58;20.60;;;;;;;9.35;100.00;102677.66;2090939;28;20032;-67
2021/11/19 03:18:54;;;;;;;31.67;22.13;;;;;;;9.36;100.00;102682.00;2090716;28;20029;-67
2021/11/19 03:19:55;;;;;;;28.80;21.10;;;;;;;9.35;100.00;102668.13;2090808;28;20067;-67
2021/11/19 03:21:01;;;;;;;28.27;19.05;;;;;;;9.35;100.00;102670.72;2091406;28;20459;-68
2021/11/19 03:22:01;;;;;;;34.97;20.13;;;;;;;9.36;100.00;102671.56;2091323;28;20402;-68
2021/11/19 03:23:02;;;;;;;30.90;20.52;;;;;;;9.35;100.00;102665.50;2091333;28;20104;-67
2021/11/19 03:24:04;;;;;;;28.55;20.13;;;;;;;9.35;100.00;102665.50;2091379;28;20159;-68
2021/11/19 03:25:08;;;;;;;29.45;19.83;;;;;;;9.36;100.00;102668.97;2090500;28;20029;-68
2021/11/19 03:26:09;;;;;;;28.83;19.35;;;;;;;9.36;100.00;102663.75;2090923;28;20045;-68
2021/11/19 03:27:12;;;;;;;30.13;19.80;;;;;;;9.36;100.00;102666.34;2091412;28;20061;-67
2021/11/19 03:28:15;;;;;;;30.02;19.38;;;;;;;9.36;100.00;102663.75;2090654;28;20068;-67
2021/11/19 03:29:17;;;;;;;30.20;20.45;;;;;;;9.36;100.00;102662.03;2090682;28;20092;-68
2021/11/19 03:30:20;;;;;;;29.77;20.30;;;;;;;9.36;100.00;102669.84;2091437;28;20513;-67
2021/11/19 03:31:21;;;;;;;29.20;18.80;;;;;;;9.35;100.00;102655.09;2091315;28;20028;-68
2021/11/19 03:32:25;;;;;;;29.58;19.33;;;;;;;9.36;100.00;102662.03;2090646;28;20025;-68
2021/11/19 03:33:29;;;;;;;31.05;20.00;;;;;;;9.36;100.00;102664.63;2090619;28;20075;-66
2021/11/19 03:34:30;;;;;;;27.08;19.10;;;;;;;9.36;100.00;102666.34;2091247;28;20112;-67
2021/11/19 03:35:31;;;;;;;31.83;20.03;;;;;;;9.36;100.00;102661.16;2091175;28;20485;-67
2021/11/19 03:36:31;;;;;;;26.90;19.67;;;;;;;9.35;100.00;102665.50;2091185;28;20513;-67
2021/11/19 03:37:33;;;;;;;28.63;19.35;;;;;;;9.36;100.00;102666.34;2091208;28;20039;-68
2021/11/19 03:38:36;;;;;;;32.97;19.77;;;;;;;9.36;100.00;102672.44;2091238;28;20128;-67
2021/11/19 03:39:37;;;;;;;30.92;19.95;;;;;;;9.35;100.00;102665.50;2091334;28;20033;-67
2021/11/19 03:40:40;;;;;;;30.48;19.95;;;;;;;9.36;100.00;102672.44;2090528;28;20102;-68
2021/11/19 03:41:42;;;;;;;29.92;19.85;;;;;;;9.37;100.00;102665.47;2090684;28;20051;-68
2021/11/19 03:42:43;;;;;;;26.88;19.05;;;;;;;9.37;100.00;102666.34;2091200;28;20033;-68
2021/11/19 03:43:53;;;;;;;26.08;17.73;;;;;;;9.37;100.00;102668.06;2091265;28;20060;-67
2021/11/19 03:44:59;;;;;;;28.02;19.42;;;;;;;9.37;100.00;102666.34;2091228;28;20597;-69
2021/11/19 03:46:05;;;;;;;28.15;18.67;;;;;;;9.39;100.00;102668.94;2091300;28;20031;-68
2021/11/19 03:47:14;;;;;;;27.73;18.63;;;;;;;9.39;100.00;102668.94;2091017;28;20021;-68
2021/11/19 03:48:16;;;;;;;31.58;18.77;;;;;;;9.40;100.00;102665.44;2091127;28;20163;-68
2021/11/19 03:49:18;;;;;;;27.90;18.75;;;;;;;9.39;100.00;102666.34;2091174;28;20037;-68
2021/11/19 03:50:21;;;;;;;28.65;19.55;;;;;;;9.40;100.00;102673.28;2091153;28;20478;-67
2021/11/19 03:51:38;;;;;;;30.60;20.58;;;;;;;9.42;100.00;102673.25;2091160;28;20454;-67
2021/11/19 03:52:41;;;;;;;28.38;18.67;;;;;;;9.38;100.00;102665.47;2091187;28;20025;-67
2021/11/19 03:53:41;;;;;;;26.58;19.33;;;;;;;9.39;100.00;102671.53;2090418;28;20066;-69
2021/11/19 03:54:45;;;;;;;26.33;19.77;;;;;;;9.39;100.00;102667.22;2090428;28;20078;-68
2021/11/19 03:55:49;;;;;;;27.52;19.17;;;;;;;9.39;100.00;102671.53;2090512;28;20020;-69
2021/11/19 03:56:51;;;;;;;30.70;19.67;;;;;;;9.41;100.00;102669.78;2091235;28;20031;-68
2021/11/19 03:57:51;;;;;;;32.80;19.63;;;;;;;9.39;100.00;102666.34;2091087;28;20025;-69
2021/11/19 03:58:53;;;;;;;25.80;19.55;;;;;;;9.40;100.00;102670.66;2091080;28;20025;-68
2021/11/19 03:59:55;;;;;;;26.65;18.80;;;;;;;9.41;100.00;102672.38;2090374;28;20511;-68
2021/11/19 04:01:08;;;;;;;26.77;18.95;;;;;;;9.42;100.00;102674.13;2090558;28;20527;-68
2021/11/19 04:02:10;;;;;;;29.25;19.77;;;;;;;9.43;100.00;102673.25;2090988;28;20441;-69
2021/11/19 04:03:12;;;;;;;28.17;19.55;;;;;;;9.43;100.00;102667.16;2090973;28;20159;-68
2021/11/19 04:04:15;;;;;;;25.10;17.90;;;;;;;9.42;100.00;102666.31;2091052;28;20063;-67
2021/11/19 04:05:16;;;;;;;27.52;19.33;;;;;;;9.43;100.00;102668.03;2091062;28;20029;-68
2021/11/19 04:06:18;;;;;;;25.77;19.45;;;;;;;9.43;100.00;102670.66;2090376;28;20036;-68
2021/11/19 04:07:20;;;;;;;28.05;18.90;;;;;;;9.44;100.00;102669.75;2090436;28;20047;-68
2021/11/19 04:08:20;;;;;;;28.27;18.73;;;;;;;9.43;100.00;102670.66;2090944;28;20497;-67
2021/11/19 04:09:21;;;;;;;29.13;20.15;;;;;;;9.43;100.00;102673.25;2091060;28;20027;-67
2021/11/19 04:10:21;;;;;;;28.30;19.00;;;;;;;9.43;100.00;102673.25;2091125;28;20106;-68
2021/11/19 04:11:23;;;;;;;25.48;18.80;;;;;;;9.43;100.00;102668.03;2090987;28;20279;-67
2021/11/19 04:12:24;;;;;;;28.40;19.63;;;;;;;9.43;100.00;102670.66;2091018;28;20033;-68
2021/11/19 04:13:25;;;;;;;27.48;20.08;;;;;;;9.45;100.00;102675.84;2090987;28;20103;-68
2021/11/19 04:14:26;;;;;;;30.52;19.77;;;;;;;9.45;100.00;102676.72;2091026;28;20096;-69
2021/11/19 04:15:31;;;;;;;29.10;19.77;;;;;;;9.45;100.00;102671.50;2091033;28;20509;-67
2021/11/19 04:16:36;;;;;;;29.40;18.65;;;;;;;9.46;100.00;102678.44;2090806;28;20032;-67
2021/11/19 04:17:37;;;;;;;27.27;18.27;;;;;;;9.47;100.00;102674.94;2091032;28;20048;-67
2021/11/19 04:18:38;;;;;;;29.70;19.67;;;;;;;9.47;100.00;102669.75;2091007;28;20104;-67
2021/11/19 04:19:39;;;;;;;32.42;20.17;;;;;;;9.46;100.00;102678.44;2091029;28;20020;-68
2021/11/19 04:20:41;;;;;;;26.98;18.98;;;;;;;9.47;100.00;102676.69;2090985;28;20017;-68
2021/11/19 04:21:42;;;;;;;26.48;19.85;;;;;;;9.47;100.00;102674.94;2090956;28;20437;-68
2021/11/19 04:22:43;;;;;;;26.90;18.75;;;;;;;9.45;100.00;102670.63;2090951;28;20036;-69
2021/11/19 04:23:44;;;;;;;25.27;19.10;;;;;;;9.46;100.00;102673.22;2090955;28;20024;-68
2021/11/19 04:24:59;;;;;;;24.30;19.10;;;;;;;9.46;100.00;102668.03;2091000;28;20025;-70
2021/11/19 04:26:03;;;;;;;27.50;19.38;;;;;;;9.47;100.00;102674.94;2090776;28;20408;-68
2021/11/19 04:27:06;;;;;;;25.70;19.92;;;;;;;9.46;100.00;102678.44;2090905;28;20033;-68
2021/11/19 04:28:07;;;;;;;27.92;19.45;;;;;;;9.46;100.00;102673.22;2090851;28;20033;-68
2021/11/19 04:29:08;;;;;;;27.80;20.85;;;;;;;9.47;100.00;102680.16;2090852;28;20032;-69
2021/11/19 04:30:14;;;;;;;25.50;18.67;;;;;;;9.48;100.00;102681.03;2091024;28;20025;-66
2021/11/19 04:31:19;;;;;;;28.98;19.75;;;;;;;9.47;100.00;102679.28;2090907;28;20061;-68
2021/11/19 04:32:23;;;;;;;28.75;18.90;;;;;;;9.47;100.00;102669.75;2090916;28;20035;-68
2021/11/19 04:33:25;;;;;;;30.67;18.15;;;;;;;9.46;100.00;102675.84;2090933;28;20103;-67
2021/11/19 04:34:26;;;;;;;25.33;18.92;;;;;;;9.47;100.00;102674.94;2090828;28;20063;-67
2021/11/19 04:35:27;;;;;;;26.85;18.90;;;;;;;9.47;100.00;102674.94;2090359;28;20426;-67
2021/11/19 04:36:27;;;;;;;;;;;;;;;9.49;100.00;102672.34;2090700;28;20032;-67
2021/11/19 04:37:28;;;;;;;23.70;16.90;;;;;;;9.47;100.00;102672.34;2090855;28;19967;-68
2021/11/19 04:38:28;;;;;;;28.75;18.75;;;;;;;9.48;100.00;102675.81;2090857;28;20033;-67
2021/11/19 04:39:29;;;;;;;22.73;17.03;;;;;;;9.49;100.00;102675.81;2090357;28;20044;-68
2021/11/19 04:40:31;;;;;;;25.67;18.58;;;;;;;9.48;100.00;102674.06;2090250;28;20025;-68
2021/11/19 04:41:31;;;;;;;26.88;20.05;;;;;;;9.48;100.00;102673.22;2090808;28;20059;-67
2021/11/19 04:42:33;;;;;;;27.50;18.67;;;;;;;9.49;100.00;102675.81;2090754;28;20500;-68
2021/11/19 04:43:36;;;;;;;29.00;19.83;;;;;;;9.49;100.00;102672.34;2090870;28;20387;-68
2021/11/19 04:44:37;;;;;;;26.17;17.02;;;;;;;9.50;100.00;102668.84;2090695;28;20546;-69
2021/11/19 04:45:39;;;;;;;28.02;18.38;;;;;;;9.49;100.00;102668.00;2090810;28;20021;-68
2021/11/19 04:46:42;;;;;;;27.98;18.30;;;;;;;9.50;100.00;102668.84;2090696;28;20037;-68
2021/11/19 04:47:43;;;;;;;27.40;18.98;;;;;;;9.51;100.00;102671.44;2090696;28;20056;-68
2021/11/19 04:48:44;;;;;;;25.85;18.30;;;;;;;9.50;100.00;102671.44;2090015;28;20032;-68
2021/11/19 04:49:44;;;;;;;26.75;19.05;;;;;;;9.51;100.00;102674.03;2090138;28;20012;-68
2021/11/19 04:50:48;;;;;;;26.60;18.92;;;;;;;9.50;100.00;102669.72;2090706;28;20029;-67
2021/11/19 04:51:49;;;;;;;27.92;19.05;;;;;;;9.52;100.00;102672.31;2090681;28;20070;-69